Time;durP1;ratioP1;P1;durP2;ratioP2;P2;SDS_P1;SDS_P2;PMS_P1;PMS_P2;Temp;Humidity;BMP_temperature;BMP_pressure;BME280_temperature;BME280_humidity;BME280_pressure;Samples;Min_cycle;Max_cycle;Signal;HPM_P1;HPM_P2
2021/11/11 00:00:50;;;;;;;0.40;0.35;;;2.90;99.90;;;;;;5092126;28;20859;-71
2021/11/11 00:03:18;;;;;;;0.40;0.20;;;2.80;99.90;;;;;;5092211;28;20378;-71
2021/11/11 00:05:44;;;;;;;1.00;1.00;;;2.90;99.90;;;;;;5092143;28;20382;-71
2021/11/11 00:08:11;;;;;;;0.60;0.60;;;3.00;99.90;;;;;;5091356;28;20386;-71
2021/11/11 00:10:37;;;;;;;0.40;0.30;;;3.00;99.90;;;;;;5091960;28;20476;-71
2021/11/11 00:13:02;;;;;;;0.40;0.30;;;2.90;99.90;;;;;;5091243;28;20410;-71
2021/11/11 00:15:29;;;;;;;0.40;0.20;;;3.00;99.90;;;;;;5091821;28;20451;-71
2021/11/11 00:17:56;;;;;;;0.40;0.20;;;3.00;99.90;;;;;;5091191;28;20385;-71
2021/11/11 00:20:24;;;;;;;1.60;0.60;;;2.90;99.90;;;;;;5091600;28;20384;-71
2021/11/11 00:22:51;;;;;;;0.50;0.50;;;2.90;99.90;;;;;;5093110;28;20457;-71
2021/11/11 00:25:19;;;;;;;0.50;0.50;;;2.80;99.90;;;;;;5108214;28;20377;-71
2021/11/11 00:27:45;;;;;;;0.40;0.30;;;2.80;99.90;;;;;;5097708;28;20373;-71
2021/11/11 00:30:14;;;;;;;0.70;0.50;;;2.70;99.90;;;;;;5100981;28;21129;-71
2021/11/11 00:32:41;;;;;;;0.60;0.60;;;2.70;99.90;;;;;;5105392;28;20376;-71
2021/11/11 00:35:10;;;;;;;0.70;0.70;;;2.70;99.90;;;;;;5110744;28;20792;-72
2021/11/11 00:37:37;;;;;;;0.40;0.30;;;2.70;99.90;;;;;;5111054;28;20887;-71
2021/11/11 00:40:04;;;;;;;2.70;1.10;;;2.70;99.90;;;;;;5110125;28;20748;-71
2021/11/11 00:42:30;;;;;;;0.40;0.40;;;2.70;99.90;;;;;;5111167;28;20391;-71
2021/11/11 00:44:56;;;;;;;0.40;0.40;;;2.70;99.90;;;;;;5110367;28;20381;-73
2021/11/11 00:47:21;;;;;;;0.40;0.40;;;2.70;99.90;;;;;;5104960;28;20431;-72
2021/11/11 00:49:48;;;;;;;0.40;0.40;;;2.60;99.90;;;;;;5090625;28;20406;-70
2021/11/11 00:52:14;;;;;;;0.40;0.30;;;2.70;99.90;;;;;;5090273;28;20816;-70
2021/11/11 00:54:41;;;;;;;0.70;0.70;;;2.60;99.90;;;;;;5091135;28;20800;-70
2021/11/11 00:57:07;;;;;;;0.40;0.30;;;2.60;99.90;;;;;;5089944;28;20386;-70
2021/11/11 00:59:33;;;;;;;0.40;0.20;;;2.70;99.90;;;;;;5091173;28;20387;-70
2021/11/11 01:02:01;;;;;;;0.40;0.20;;;2.70;99.90;;;;;;5090567;28;20380;-70
2021/11/11 01:04:27;;;;;;;0.60;0.60;;;2.60;99.90;;;;;;5091234;28;20430;-70
2021/11/11 01:06:53;;;;;;;0.40;0.40;;;2.60;99.90;;;;;;5091311;28;20610;-70
2021/11/11 01:09:18;;;;;;;0.40;0.30;;;2.70;99.90;;;;;;5091001;28;20432;-70
2021/11/11 01:11:44;;;;;;;1.20;0.80;;;2.60;99.90;;;;;;5090981;28;20386;-70
2021/11/11 01:14:10;;;;;;;0.40;0.30;;;2.70;99.90;;;;;;5090250;28;20413;-70
2021/11/11 01:16:35;;;;;;;0.40;0.30;;;2.70;99.90;;;;;;5089710;28;20394;-70
2021/11/11 01:19:02;;;;;;;0.40;0.30;;;2.60;99.90;;;;;;5090318;28;20389;-71
2021/11/11 01:21:27;;;;;;;1.10;0.60;;;2.50;99.90;;;;;;5090806;28;20542;-71
2021/11/11 01:23:54;;;;;;;0.40;0.30;;;2.60;99.90;;;;;;5093771;28;20481;-70
2021/11/11 01:26:20;;;;;;;0.40;0.23;;;2.60;99.90;;;;;;5099923;28;20960;-70
2021/11/11 01:28:46;;;;;;;0.50;0.25;;;2.70;99.90;;;;;;5091280;28;20382;-70
2021/11/11 01:31:11;;;;;;;0.73;0.43;;;2.70;99.90;;;;;;5090058;28;20454;-71
2021/11/11 01:33:37;;;;;;;0.70;0.50;;;2.70;99.90;;;;;;5092125;28;20406;-71
2021/11/11 01:36:06;;;;;;;0.40;0.20;;;2.60;99.90;;;;;;5110376;28;20376;-71
2021/11/11 01:38:32;;;;;;;0.70;0.70;;;2.50;99.90;;;;;;5111201;28;20737;-71
2021/11/11 01:40:58;;;;;;;0.60;0.60;;;2.40;99.90;;;;;;5110334;28;20385;-72
2021/11/11 01:43:23;;;;;;;0.50;0.50;;;2.40;99.90;;;;;;5098157;28;20459;-71
2021/11/11 01:45:49;;;;;;;0.40;0.30;;;2.30;99.90;;;;;;5090519;28;20431;-71
2021/11/11 01:48:16;;;;;;;0.40;0.20;;;2.30;99.90;;;;;;5090295;28;20413;-71
2021/11/11 01:50:43;;;;;;;0.40;0.30;;;2.30;99.90;;;;;;5089998;28;20394;-71
2021/11/11 01:53:11;;;;;;;0.50;0.45;;;2.20;99.90;;;;;;5109699;28;20372;-71
2021/11/11 01:55:41;;;;;;;0.80;0.80;;;2.20;99.90;;;;;;5110580;28;20826;-71
2021/11/11 01:58:07;;;;;;;0.45;0.43;;;2.30;99.90;;;;;;5111318;28;20368;-71
2021/11/11 02:00:39;;;;;;;0.70;0.70;;;2.20;99.90;;;;;;5102815;28;20378;-71
2021/11/11 02:03:07;;;;;;;0.40;0.20;;;2.20;99.90;;;;;;5093991;28;20738;-71
2021/11/11 02:05:34;;;;;;;0.40;0.30;;;2.10;99.90;;;;;;5094561;28;20795;-70
2021/11/11 02:08:00;;;;;;;0.40;0.20;;;2.10;99.90;;;;;;5093822;28;20381;-71
2021/11/11 02:10:28;;;;;;;0.50;0.50;;;2.10;99.90;;;;;;5093992;28;20381;-71
2021/11/11 02:12:54;;;;;;;0.40;0.40;;;2.10;99.90;;;;;;5094312;28;20380;-71
2021/11/11 02:15:21;;;;;;;0.40;0.20;;;2.00;99.90;;;;;;5093624;28;20866;-71
2021/11/11 02:17:48;;;;;;;0.40;0.20;;;2.00;99.90;;;;;;5094224;28;20374;-71
2021/11/11 02:20:28;;;;;;;0.40;0.30;;;1.90;99.90;;;;;;5093594;28;20468;-71
2021/11/11 02:22:55;;;;;;;0.40;0.30;;;2.20;99.90;;;;;;5093936;28;20418;-71
2021/11/11 02:25:24;;;;;;;0.40;0.30;;;2.10;99.90;;;;;;5100687;28;20379;-71
2021/11/11 02:27:52;;;;;;;0.40;0.30;;;2.10;99.90;;;;;;5107756;28;20376;-71
2021/11/11 02:30:19;;;;;;;0.40;0.20;;;2.00;99.90;;;;;;5113548;28;20388;-71
2021/11/11 02:32:46;;;;;;;0.40;0.20;;;2.00;99.90;;;;;;5114255;28;20477;-71
2021/11/11 02:35:13;;;;;;;1.00;0.60;;;2.00;99.90;;;;;;5113369;28;20420;-71
2021/11/11 02:37:40;;;;;;;0.40;0.30;;;2.00;99.90;;;;;;5097411;28;20424;-71
2021/11/11 02:40:23;;;;;;;0.50;0.40;;;2.00;99.90;;;;;;5093144;28;20432;-71
2021/11/11 02:42:50;;;;;;;0.40;0.20;;;1.90;99.90;;;;;;5093483;28;20719;-71
2021/11/11 02:45:18;;;;;;;0.40;0.20;;;2.10;99.90;;;;;;5099176;28;20718;-71
2021/11/11 02:47:46;;;;;;;0.40;0.20;;;2.10;99.90;;;;;;5105097;28;20741;-69
2021/11/11 02:50:13;;;;;;;0.40;0.30;;;2.10;99.90;;;;;;5092962;28;20402;-72
2021/11/11 02:52:39;;;;;;;0.90;0.90;;;2.10;99.90;;;;;;5093602;28;20431;-72
2021/11/11 02:55:06;;;;;;;0.80;0.80;;;2.20;99.90;;;;;;5106715;28;20396;-72
2021/11/11 02:57:38;;;;;;;0.60;0.57;;;2.20;99.90;;;;;;5113802;28;20400;-72
2021/11/11 03:00:39;;;;;;;0.40;0.30;;;2.20;99.90;;;;;;5113290;28;20853;-72
2021/11/11 03:03:05;;;;;;;0.40;0.20;;;2.30;99.90;;;;;;5105772;28;20402;-72
2021/11/11 03:05:33;;;;;;;0.40;0.20;;;2.20;99.90;;;;;;5113677;28;20383;-72
2021/11/11 03:07:59;;;;;;;0.40;0.28;;;2.10;99.90;;;;;;5113176;28;20394;-71
2021/11/11 03:10:28;;;;;;;0.50;0.50;;;2.00;99.90;;;;;;5112571;28;20377;-70
2021/11/11 03:12:55;;;;;;;0.40;0.20;;;2.10;99.90;;;;;;5113179;28;20395;-70
2021/11/11 03:15:24;;;;;;;0.40;0.40;;;2.40;99.90;;;;;;5112892;28;20816;-70
2021/11/11 03:17:50;;;;;;;0.40;0.40;;;2.20;99.90;;;;;;5113278;28;20417;-71
2021/11/11 03:20:17;;;;;;;0.40;0.20;;;2.20;99.90;;;;;;5112666;28;20385;-71
2021/11/11 03:22:43;;;;;;;0.40;0.20;;;2.10;99.90;;;;;;5109356;28;20385;-71
2021/11/11 03:25:11;;;;;;;0.40;0.20;;;2.20;99.90;;;;;;5101908;28;20465;-71
2021/11/11 03:27:37;;;;;;;1.20;1.00;;;2.10;99.90;;;;;;5113080;28;20377;-71
2021/11/11 03:30:08;;;;;;;0.40;0.40;;;2.30;99.90;;;;;;5112600;28;20437;-72
2021/11/11 03:32:34;;;;;;;0.40;0.20;;;2.30;99.90;;;;;;5112997;28;20515;-71
2021/11/11 03:35:00;;;;;;;0.60;0.60;;;2.30;99.90;;;;;;5099992;28;20497;-71
2021/11/11 03:37:26;;;;;;;0.40;0.20;;;2.50;99.90;;;;;;5092300;28;20471;-71
2021/11/11 03:39:52;;;;;;;0.40;0.20;;;2.60;99.90;;;;;;5092989;28;20455;-71
2021/11/11 03:42:18;;;;;;;0.50;0.50;;;2.60;99.90;;;;;;5091838;28;20390;-71
2021/11/11 03:44:45;;;;;;;0.40;0.20;;;2.50;99.90;;;;;;5101534;28;20510;-71
2021/11/11 03:47:10;;;;;;;0.40;0.30;;;2.60;99.90;;;;;;5108179;28;20726;-71
2021/11/11 03:49:37;;;;;;;0.40;0.20;;;2.70;99.90;;;;;;5092496;28;20370;-71
2021/11/11 03:52:04;;;;;;;0.40;0.20;;;2.80;99.90;;;;;;5091900;28;20433;-71
2021/11/11 03:54:30;;;;;;;0.40;0.40;;;2.70;99.90;;;;;;5091818;28;20493;-70
2021/11/11 03:56:59;;;;;;;0.40;0.20;;;2.70;99.90;;;;;;5091978;28;20740;-71
2021/11/11 03:59:26;;;;;;;0.40;0.30;;;2.90;99.90;;;;;;5091423;28;20373;-71
2021/11/11 04:01:54;;;;;;;0.45;0.32;;;3.00;99.90;;;;;;5091593;28;20461;-71
2021/11/11 04:04:20;;;;;;;0.40;0.30;;;3.00;99.90;;;;;;5090828;28;20398;-71
2021/11/11 04:06:47;;;;;;;1.80;0.70;;;2.90;99.90;;;;;;5090511;28;20461;-71
2021/11/11 04:09:13;;;;;;;0.50;0.40;;;3.00;99.90;;;;;;5090875;28;20416;-71
2021/11/11 04:11:39;;;;;;;0.40;0.40;;;3.10;99.90;;;;;;5092002;28;20378;-71
2021/11/11 04:14:05;;;;;;;0.40;0.20;;;3.00;99.90;;;;;;5091009;28;20438;-71
2021/11/11 04:16:31;;;;;;;0.40;0.20;;;3.00;99.90;;;;;;5091946;28;20527;-71
2021/11/11 04:18:56;;;;;;;0.60;0.60;;;3.00;99.90;;;;;;5091808;28;20560;-71
2021/11/11 04:21:22;;;;;;;0.40;0.28;;;3.30;99.90;;;;;;5091109;28;20869;-71
2021/11/11 04:23:50;;;;;;;0.40;0.20;;;3.00;99.90;;;;;;5092546;28;20397;-71
2021/11/11 04:26:22;;;;;;;0.40;0.30;;;3.10;99.90;;;;;;5094389;28;20374;-71
2021/11/11 04:28:56;;;;;;;0.50;0.50;;;3.00;99.90;;;;;;5092148;28;20374;-70
2021/11/11 04:31:29;;;;;;;0.90;0.80;;;2.80;99.90;;;;;;5091101;28;20378;-70
2021/11/11 04:34:02;;;;;;;0.43;0.43;;;2.70;99.90;;;;;;5104629;28;20432;-71
2021/11/11 04:44:32;;;;;;;0.40;0.30;;;2.30;99.90;;;;;;5111020;28;20379;-72
2021/11/11 05:05:42;;;;;;;0.40;0.30;;;2.60;99.90;;;;;;5091396;28;20390;-71
2021/11/11 05:08:08;;;;;;;0.40;0.20;;;2.50;99.90;;;;;;5093482;28;20406;-71
2021/11/11 05:10:34;;;;;;;0.40;0.20;;;2.70;99.90;;;;;;5091239;28;20412;-71
2021/11/11 05:12:59;;;;;;;0.40;0.20;;;2.70;99.90;;;;;;5091090;28;20406;-71
2021/11/11 05:15:25;;;;;;;0.40;0.20;;;3.50;99.90;;;;;;5090368;28;21051;-71
2021/11/11 05:17:51;;;;;;;0.40;0.40;;;2.70;99.90;;;;;;5101163;28;20371;-71
2021/11/11 05:20:18;;;;;;;0.60;0.60;;;2.70;99.90;;;;;;5110953;28;20379;-71
2021/11/11 05:22:45;;;;;;;0.40;0.20;;;2.60;99.90;;;;;;5110106;28;20427;-71
2021/11/11 05:25:12;;;;;;;4.70;0.80;;;2.70;99.90;;;;;;5104763;28;20408;-71
2021/11/11 05:27:38;;;;;;;0.40;0.20;;;2.60;99.90;;;;;;5104569;28;20734;-71
2021/11/11 05:30:09;;;;;;;0.50;0.50;;;3.00;99.90;;;;;;5111393;28;20383;-72
2021/11/11 05:32:35;;;;;;;0.40;0.30;;;2.90;99.90;;;;;;5111043;28;20384;-72
2021/11/11 05:35:06;;;;;;;0.40;0.20;;;2.70;99.90;;;;;;5101750;28;20430;-71
2021/11/11 05:37:32;;;;;;;0.40;0.20;;;2.80;99.90;;;;;;5095289;28;20374;-71
2021/11/11 05:40:01;;;;;;;0.40;0.30;;;2.90;99.90;;;;;;5095136;28;20392;-71
2021/11/11 05:42:26;;;;;;;0.40;0.20;;;2.80;99.90;;;;;;5094636;28;20385;-70
2021/11/11 05:44:52;;;;;;;0.40;0.20;;;2.90;99.90;;;;;;5095259;28;20782;-71
2021/11/11 05:47:18;;;;;;;0.40;0.40;;;2.90;99.90;;;;;;5094403;28;20372;-71
2021/11/11 05:49:44;;;;;;;0.40;0.20;;;2.90;99.90;;;;;;5089524;28;20385;-71
2021/11/11 05:52:10;;;;;;;1.80;0.90;;;3.00;99.90;;;;;;5086209;28;21146;-71
2021/11/11 05:54:39;;;;;;;0.70;0.70;;;3.00;99.90;;;;;;5080007;28;20421;-71
2021/11/11 05:57:08;;;;;;;0.40;0.30;;;2.90;99.90;;;;;;5090168;28;20743;-71
2021/11/11 05:59:38;;;;;;;0.50;0.50;;;3.00;99.90;;;;;;5087085;28;20474;-71
2021/11/11 06:02:11;;;;;;;0.40;0.22;;;3.00;99.90;;;;;;5093198;28;20378;-71
2021/11/11 06:04:38;;;;;;;6.50;1.00;;;3.00;99.90;;;;;;5078561;28;20399;-70
2021/11/11 06:07:04;;;;;;;0.50;0.50;;;3.00;99.90;;;;;;5073341;28;20463;-70
2021/11/11 06:09:30;;;;;;;0.40;0.30;;;2.90;99.90;;;;;;5070948;28;20692;-70
2021/11/11 06:11:56;;;;;;;0.70;0.70;;;3.10;99.90;;;;;;5073035;28;20490;-70
2021/11/11 06:14:21;;;;;;;0.40;0.30;;;2.80;99.90;;;;;;5071976;28;20468;-70
2021/11/11 06:16:48;;;;;;;0.80;0.80;;;2.70;99.90;;;;;;5073126;28;20384;-70
2021/11/11 06:19:14;;;;;;;1.00;0.90;;;2.80;99.90;;;;;;5072773;28;20520;-71
2021/11/11 06:21:40;;;;;;;0.40;0.20;;;3.00;99.90;;;;;;5073312;28;20771;-70
2021/11/11 06:24:10;;;;;;;0.40;0.20;;;3.00;99.90;;;;;;5073197;28;20383;-70
2021/11/11 06:26:35;;;;;;;0.40;0.20;;;2.70;99.90;;;;;;5097421;28;20916;-70
2021/11/11 06:29:02;;;;;;;0.40;0.30;;;2.90;99.90;;;;;;5092891;28;20382;-69
2021/11/11 06:31:28;;;;;;;0.40;0.30;;;2.90;99.90;;;;;;5092643;28;20454;-70
2021/11/11 06:33:54;;;;;;;0.60;0.60;;;2.70;99.90;;;;;;5104393;28;20400;-69
2021/11/11 06:36:20;;;;;;;0.40;0.30;;;2.50;99.90;;;;;;5112779;28;20386;-70
2021/11/11 06:38:46;;;;;;;0.40;0.30;;;2.40;99.90;;;;;;5112983;28;20380;-70
2021/11/11 06:41:12;;;;;;;0.50;0.50;;;2.40;99.90;;;;;;5108841;28;20381;-71
2021/11/11 06:43:39;;;;;;;0.50;0.50;;;2.20;99.90;;;;;;5091130;28;20487;-70
2021/11/11 06:46:06;;;;;;;0.50;0.50;;;2.20;99.90;;;;;;5093258;28;20531;-70
2021/11/11 06:48:32;;;;;;;0.60;0.60;;;2.30;99.90;;;;;;5092108;28;20434;-70
2021/11/11 06:50:58;;;;;;;0.40;0.20;;;2.20;99.90;;;;;;5093275;28;20397;-70
2021/11/11 06:53:24;;;;;;;0.40;0.20;;;2.30;99.90;;;;;;5092092;28;20413;-71
2021/11/11 06:55:50;;;;;;;0.40;0.20;;;2.40;99.90;;;;;;5093001;28;20409;-70
2021/11/11 06:58:21;;;;;;;0.50;0.50;;;2.30;99.90;;;;;;5092506;28;20463;-71
2021/11/11 07:00:47;;;;;;;0.40;0.30;;;2.40;99.90;;;;;;5092305;28;20959;-70
2021/11/11 07:03:13;;;;;;;0.40;0.40;;;2.40;99.90;;;;;;5093076;28;20469;-71
2021/11/11 07:05:39;;;;;;;0.40;0.20;;;2.20;99.90;;;;;;5097527;28;20480;-69
2021/11/11 07:08:09;;;;;;;0.40;0.40;;;2.10;99.90;;;;;;5107358;28;20874;-70
2021/11/11 07:10:35;;;;;;;0.50;0.50;;;2.10;99.90;;;;;;5095839;28;20612;-70
2021/11/11 07:13:01;;;;;;;0.40;0.20;;;2.10;99.90;;;;;;5109026;28;20371;-70
2021/11/11 07:15:27;;;;;;;0.40;0.20;;;2.20;99.90;;;;;;5099378;28;20872;-70
2021/11/11 07:17:52;;;;;;;0.40;0.30;;;2.10;99.90;;;;;;5112870;28;20515;-70
2021/11/11 07:20:18;;;;;;;0.40;0.20;;;2.40;99.90;;;;;;5112069;28;20467;-71
2021/11/11 07:22:45;;;;;;;0.40;0.20;;;2.30;99.90;;;;;;5113521;28;20468;-71
2021/11/11 07:25:13;;;;;;;0.40;0.20;;;2.20;99.90;;;;;;5112947;28;20475;-71
2021/11/11 07:27:39;;;;;;;0.40;0.20;;;2.20;99.90;;;;;;5111174;28;20387;-71
2021/11/11 07:30:08;;;;;;;0.40;0.20;;;2.10;99.90;;;;;;5104950;28;20862;-71
2021/11/11 07:32:34;;;;;;;0.40;0.20;;;2.20;99.90;;;;;;5103194;28;20989;-71
2021/11/11 07:35:00;;;;;;;0.40;0.20;;;2.10;99.90;;;;;;5094171;28;20417;-71
2021/11/11 07:37:26;;;;;;;1.00;0.50;;;2.10;99.90;;;;;;5103585;28;20405;-71
2021/11/11 07:39:52;;;;;;;0.90;0.80;;;2.00;99.90;;;;;;5097290;28;20395;-71
2021/11/11 07:42:20;;;;;;;0.40;0.40;;;2.00;99.90;;;;;;5103898;28;20377;-72
2021/11/11 07:44:47;;;;;;;0.40;0.30;;;2.10;99.90;;;;;;5104185;28;20388;-71
2021/11/11 07:47:16;;;;;;;0.60;0.60;;;2.10;99.90;;;;;;5096362;28;20405;-71
2021/11/11 07:49:42;;;;;;;0.50;0.40;;;2.20;99.90;;;;;;5091646;28;20386;-72
2021/11/11 07:52:11;;;;;;;0.47;0.43;;;2.40;99.90;;;;;;5098457;28;20889;-71
2021/11/11 07:54:36;;;;;;;0.40;0.20;;;2.50;99.90;;;;;;5100281;28;20406;-72
2021/11/11 07:57:02;;;;;;;0.40;0.20;;;2.60;99.90;;;;;;5110599;28;20551;-71
2021/11/11 07:59:28;;;;;;;0.40;0.30;;;2.50;99.90;;;;;;5094234;28;20379;-72
2021/11/11 08:01:53;;;;;;;0.40;0.30;;;2.60;99.90;;;;;;5105749;28;20397;-71
2021/11/11 08:04:19;;;;;;;0.80;0.80;;;2.70;99.90;;;;;;5104009;28;20421;-72
2021/11/11 08:06:45;;;;;;;0.40;0.20;;;3.10;99.90;;;;;;5096328;28;20483;-72
2021/11/11 08:09:11;;;;;;;0.40;0.40;;;2.90;99.90;;;;;;5107686;28;20400;-72
2021/11/11 08:11:36;;;;;;;0.40;0.30;;;2.70;99.90;;;;;;5099480;28;20446;-72
2021/11/11 08:14:05;;;;;;;0.47;0.47;;;2.80;99.90;;;;;;5104815;28;20404;-71
2021/11/11 08:16:31;;;;;;;0.40;0.30;;;2.80;99.90;;;;;;5097599;28;20448;-72
2021/11/11 08:18:59;;;;;;;0.40;0.20;;;3.10;99.90;;;;;;5091146;28;20826;-72
2021/11/11 08:21:25;;;;;;;0.50;0.40;;;3.20;99.90;;;;;;5090395;28;20460;-72
2021/11/11 08:23:50;;;;;;;0.40;0.20;;;3.50;99.90;;;;;;5091350;28;20470;-72
2021/11/11 08:26:16;;;;;;;0.40;0.30;;;3.60;99.90;;;;;;5091017;28;20398;-72
2021/11/11 08:28:42;;;;;;;1.20;1.10;;;3.50;99.90;;;;;;5091059;28;20378;-71
2021/11/11 08:31:08;;;;;;;0.40;0.40;;;3.40;99.90;;;;;;5091250;28;20381;-71
2021/11/11 08:33:33;;;;;;;0.40;0.30;;;3.50;99.90;;;;;;5090350;28;20410;-72
2021/11/11 08:35:59;;;;;;;0.40;0.20;;;3.80;99.90;;;;;;5091681;28;20432;-71
2021/11/11 08:38:27;;;;;;;0.40;0.20;;;3.70;99.90;;;;;;5091054;28;20680;-71
2021/11/11 08:40:54;;;;;;;0.90;0.90;;;3.60;99.90;;;;;;5091432;28;20377;-72
2021/11/11 08:43:20;;;;;;;1.40;1.30;;;3.60;99.90;;;;;;5090812;28;20386;-72
2021/11/11 08:45:46;;;;;;;0.60;0.60;;;3.40;99.90;;;;;;5091209;28;20374;-71
2021/11/11 08:48:12;;;;;;;0.50;0.50;;;3.30;99.90;;;;;;5091319;28;20402;-71
2021/11/11 08:50:38;;;;;;;2.40;0.70;;;3.70;99.90;;;;;;5088980;28;21031;-71
2021/11/11 08:53:07;;;;;;;0.45;0.45;;;3.60;99.90;;;;;;5091082;28;20401;-72
2021/11/11 08:55:33;;;;;;;0.50;0.50;;;3.80;99.90;;;;;;5090445;28;20398;-72
2021/11/11 08:58:01;;;;;;;0.47;0.40;;;3.40;99.90;;;;;;5091250;28;20393;-71
2021/11/11 09:00:30;;;;;;;1.00;0.90;;;3.50;99.90;;;;;;5090276;28;20439;-72
2021/11/11 09:02:57;;;;;;;1.20;0.80;;;3.50;99.90;;;;;;5091071;28;20400;-72
2021/11/11 09:05:25;;;;;;;1.20;0.90;;;3.80;99.90;;;;;;5089678;28;20386;-71
2021/11/11 09:07:52;;;;;;;0.95;0.85;;;3.80;99.90;;;;;;5089972;28;20383;-72
2021/11/11 09:10:19;;;;;;;0.40;0.30;;;3.50;99.90;;;;;;5090816;28;20377;-72
2021/11/11 09:12:49;;;;;;;4.00;1.10;;;3.60;99.90;;;;;;5089295;28;20387;-71
2021/11/11 09:15:19;;;;;;;0.40;0.20;;;3.50;99.90;;;;;;5089937;28;20442;-71
2021/11/11 09:17:46;;;;;;;0.40;0.30;;;3.60;99.90;;;;;;5090073;28;20497;-71
2021/11/11 09:20:14;;;;;;;0.80;0.80;;;3.60;99.90;;;;;;5090250;28;20477;-70
2021/11/11 09:22:40;;;;;;;0.40;0.40;;;3.40;99.90;;;;;;5089733;28;20389;-72
2021/11/11 09:25:08;;;;;;;0.40;0.30;;;3.50;99.90;;;;;;5090430;28;20382;-70
2021/11/11 09:27:35;;;;;;;0.40;0.20;;;3.50;99.90;;;;;;5089338;28;20738;-70
2021/11/11 09:30:01;;;;;;;0.50;0.50;;;3.80;99.90;;;;;;5090138;28;20390;-70
2021/11/11 09:32:27;;;;;;;0.50;0.50;;;3.80;99.90;;;;;;5089074;28;20378;-71
2021/11/11 09:34:53;;;;;;;1.80;0.60;;;4.00;99.90;;;;;;5090176;28;20503;-70
2021/11/11 09:37:19;;;;;;;0.40;0.28;;;4.10;99.90;;;;;;5089977;28;20382;-71
2021/11/11 09:39:45;;;;;;;0.40;0.40;;;4.20;99.90;;;;;;5089574;28;20450;-71
2021/11/11 09:42:10;;;;;;;0.50;0.50;;;4.10;99.90;;;;;;5090304;28;20406;-72
2021/11/11 09:44:36;;;;;;;0.90;0.90;;;3.90;99.90;;;;;;5088997;28;20401;-72
2021/11/11 09:47:03;;;;;;;0.40;0.20;;;3.80;99.90;;;;;;5090334;28;20383;-71
2021/11/11 09:49:30;;;;;;;0.40;0.20;;;3.80;99.90;;;;;;5089676;28;20453;-72
2021/11/11 09:51:56;;;;;;;1.15;1.05;;;3.90;99.90;;;;;;5090583;28;20405;-71
2021/11/11 09:59:41;;;;;;;0.40;0.20;;;3.60;99.90;;;;;;5089400;28;20431;-71
2021/11/11 10:02:08;;;;;;;1.00;0.50;;;3.70;99.90;;;;;;5089916;28;20437;-71
2021/11/11 10:04:35;;;;;;;0.40;0.20;;;3.50;99.90;;;;;;5089635;28;20837;-72
2021/11/11 10:07:01;;;;;;;0.40;0.30;;;3.70;99.90;;;;;;5090274;28;20382;-72
2021/11/11 10:09:28;;;;;;;0.40;0.20;;;3.90;99.90;;;;;;5089297;28;20378;-72
2021/11/11 10:12:06;;;;;;;0.40;0.40;;;3.90;99.90;;;;;;5089817;28;20507;-72
2021/11/11 10:14:36;;;;;;;0.40;0.35;;;4.10;99.90;;;;;;5089276;28;20973;-72
2021/11/11 10:17:07;;;;;;;0.57;0.57;;;4.30;99.90;;;;;;5090289;28;20374;-71
2021/11/11 10:19:37;;;;;;;0.40;0.30;;;4.40;99.90;;;;;;5090889;28;20433;-72
2021/11/11 10:22:19;;;;;;;0.40;0.30;;;4.00;99.90;;;;;;5092283;28;20396;-72
2021/11/11 10:24:54;;;;;;;1.08;0.98;;;4.20;99.90;;;;;;5093249;28;20382;-71
2021/11/11 10:27:47;;;;;;;0.40;0.20;;;4.80;99.90;;;;;;5093872;28;20384;-71
2021/11/11 10:30:26;;;;;;;0.40;0.20;;;4.60;99.90;;;;;;5093483;28;20397;-71
2021/11/11 10:32:58;;;;;;;2.20;1.50;;;4.60;99.90;;;;;;5093540;28;20482;-71
2021/11/11 10:35:29;;;;;;;0.60;0.60;;;4.40;99.90;;;;;;5093178;28;20436;-70
2021/11/11 10:38:08;;;;;;;0.40;0.30;;;4.60;99.90;;;;;;5093470;28;20394;-71
2021/11/11 10:40:44;;;;;;;0.40;0.30;;;4.80;99.90;;;;;;5092544;28;20445;-71
2021/11/11 10:43:26;;;;;;;0.80;0.55;;;5.00;99.90;;;;;;5092948;28;20382;-71
2021/11/11 10:45:56;;;;;;;0.67;0.67;;;4.80;99.90;;;;;;5093091;28;20482;-70
2021/11/11 10:48:25;;;;;;;0.40;0.30;;;4.70;99.90;;;;;;5093245;28;20461;-71
2021/11/11 10:50:54;;;;;;;0.70;0.70;;;5.00;99.90;;;;;;5092739;28;20443;-71
2021/11/11 10:53:24;;;;;;;0.40;0.40;;;4.90;99.90;;;;;;5092952;28;20378;-71
2021/11/11 10:55:52;;;;;;;0.40;0.30;;;4.80;99.90;;;;;;5092264;28;20756;-70
2021/11/11 10:58:39;;;;;;;0.40;0.30;;;4.60;99.90;;;;;;5092748;28;20885;-70
2021/11/11 11:01:06;;;;;;;0.80;0.70;;;4.60;99.90;;;;;;5093055;28;20386;-71
2021/11/11 11:03:37;;;;;;;0.40;0.40;;;4.60;99.90;;;;;;5092221;28;20746;-71
2021/11/11 11:06:08;;;;;;;0.40;0.30;;;4.70;99.90;;;;;;5091673;28;20386;-70
2021/11/11 11:08:47;;;;;;;0.70;0.50;;;4.60;99.90;;;;;;5090988;28;20386;-70
2021/11/11 11:11:20;;;;;;;0.40;0.30;;;4.70;99.90;;;;;;5093279;28;20801;-71
2021/11/11 11:13:55;;;;;;;0.60;0.60;;;4.80;99.90;;;;;;5092411;28;20406;-71
2021/11/11 11:16:23;;;;;;;0.73;0.73;;;4.80;99.90;;;;;;5093021;28;20486;-70
2021/11/11 11:18:58;;;;;;;0.40;0.20;;;4.80;99.90;;;;;;5091777;28;20378;-69
2021/11/11 11:21:30;;;;;;;1.00;0.90;;;4.50;99.90;;;;;;5092799;28;20384;-71
2021/11/11 11:24:04;;;;;;;0.40;0.30;;;4.50;99.90;;;;;;5092520;28;20386;-71
2021/11/11 11:26:38;;;;;;;0.70;0.60;;;4.50;99.90;;;;;;5092471;28;20381;-72
2021/11/11 11:29:10;;;;;;;0.60;0.60;;;4.60;99.90;;;;;;5092438;28;20830;-70
2021/11/11 11:32:09;;;;;;;0.40;0.30;;;4.70;99.90;;;;;;5090944;28;20436;-71
2021/11/11 11:34:39;;;;;;;0.40;0.30;;;4.90;99.90;;;;;;5091729;28;20430;-71
2021/11/11 11:37:17;;;;;;;0.70;0.70;;;4.90;99.90;;;;;;5090811;28;20863;-70
2021/11/11 11:40:03;;;;;;;0.45;0.43;;;5.10;99.90;;;;;;5091442;28;20444;-71
2021/11/11 11:42:35;;;;;;;0.70;0.70;;;4.80;99.90;;;;;;5092045;28;20416;-72
2021/11/11 11:45:07;;;;;;;0.70;0.70;;;4.90;99.90;;;;;;5092363;28;20463;-71
2021/11/11 11:47:43;;;;;;;0.40;0.20;;;4.90;99.90;;;;;;5091348;28;20396;-71
2021/11/11 11:50:21;;;;;;;0.40;0.30;;;4.80;99.90;;;;;;5092089;28;20731;-71
2021/11/11 11:52:53;;;;;;;0.50;0.40;;;4.90;99.90;;;;;;5091065;28;20867;-72
2021/11/11 11:55:30;;;;;;;0.50;0.50;;;4.80;99.90;;;;;;5090863;28;20405;-70
2021/11/11 12:04:39;;;;;;;0.40;0.30;;;4.90;99.90;;;;;;5091965;28;20377;-71
2021/11/11 12:40:01;;;;;;;1.60;1.00;;;5.20;99.90;;;;;;5070006;28;20466;-70
2021/11/11 12:42:32;;;;;;;0.63;0.63;;;5.60;99.90;;;;;;5070745;28;20409;-70
2021/11/11 12:44:58;;;;;;;0.40;0.20;;;5.60;99.90;;;;;;5070099;28;20398;-69
2021/11/11 12:47:45;;;;;;;0.40;0.40;;;5.50;99.90;;;;;;5076567;28;20385;-71
2021/11/11 12:50:45;;;;;;;0.90;0.90;;;5.40;99.90;;;;;;5090999;28;20442;-71
2021/11/11 12:53:14;;;;;;;0.40;0.20;;;5.20;99.90;;;;;;5090613;28;20692;-71
2021/11/11 12:55:51;;;;;;;2.20;1.00;;;5.30;99.90;;;;;;5089999;28;20531;-72
2021/11/11 12:58:21;;;;;;;0.40;0.30;;;5.00;99.90;;;;;;5089692;28;20901;-71
2021/11/11 13:00:59;;;;;;;0.57;0.43;;;5.00;99.90;;;;;;5090149;28;20393;-72
2021/11/11 13:03:47;;;;;;;0.90;0.60;;;5.10;99.90;;;;;;5090695;28;20385;-71
2021/11/11 13:06:14;;;;;;;0.50;0.50;;;5.20;99.90;;;;;;5090927;28;20397;-72
2021/11/11 13:08:43;;;;;;;0.40;0.20;;;5.40;99.90;;;;;;5089740;28;20531;-72
2021/11/11 13:11:11;;;;;;;0.70;0.70;;;5.30;99.90;;;;;;5090731;28;20668;-72
2021/11/11 13:13:38;;;;;;;0.40;0.30;;;5.40;99.90;;;;;;5089810;28;20418;-72
2021/11/11 13:16:17;;;;;;;0.80;0.80;;;5.60;99.90;;;;;;5090593;28;20390;-71
2021/11/11 13:18:48;;;;;;;1.40;0.60;;;5.40;99.90;;;;;;5089624;28;20862;-72
2021/11/11 14:00:36;;;;;;;0.50;0.50;;;5.00;99.90;;;;;;5109920;28;20437;-72
2021/11/11 16:01:16;;;;;;;0.40;0.30;;;4.60;99.90;;;;;;5086738;28;20445;-71
2021/11/11 16:20:49;;;;;;;1.20;0.93;;;4.60;99.90;;;;;;5087493;28;20439;-71
2021/11/11 16:23:07;;;;;;;0.40;0.20;;;4.60;99.90;;;;;;5085289;28;20400;-71
2021/11/11 16:28:17;;;;;;;0.40;0.40;;;4.60;99.90;;;;;;5090806;28;20381;-69
2021/11/11 16:30:43;;;;;;;0.50;0.50;;;4.60;99.90;;;;;;5088522;28;20374;-73
2021/11/11 16:33:09;;;;;;;0.40;0.30;;;4.60;99.90;;;;;;5088905;28;20410;-69
2021/11/11 16:35:35;;;;;;;0.40;0.40;;;4.70;99.90;;;;;;5089496;28;20461;-69
2021/11/11 16:38:02;;;;;;;0.40;0.30;;;4.60;99.90;;;;;;5087343;28;20379;-69
2021/11/11 16:40:29;;;;;;;1.00;0.70;;;4.60;99.90;;;;;;5088946;28;20880;-73
2021/11/11 16:42:55;;;;;;;1.00;1.00;;;4.70;99.90;;;;;;5088299;28;20390;-69
2021/11/11 16:45:24;;;;;;;0.40;0.20;;;4.70;99.90;;;;;;5089020;28;20901;-69
2021/11/11 16:47:56;;;;;;;0.80;0.70;;;4.80;99.90;;;;;;5088252;28;20413;-69
2021/11/11 16:50:26;;;;;;;1.40;0.70;;;4.90;99.90;;;;;;5088784;28;20390;-69
2021/11/11 16:52:55;;;;;;;0.70;0.70;;;4.70;99.90;;;;;;5088519;28;20431;-69
2021/11/11 16:55:22;;;;;;;0.55;0.55;;;4.80;99.90;;;;;;5088754;28;20413;-69
2021/11/11 16:57:53;;;;;;;0.40;0.40;;;4.90;99.90;;;;;;5090139;28;21303;-69
2021/11/11 17:00:20;;;;;;;0.40;0.30;;;4.80;99.90;;;;;;5088834;28;20384;-69
2021/11/11 17:02:47;;;;;;;0.40;0.30;;;4.70;99.90;;;;;;5088420;28;20390;-70
2021/11/11 17:05:13;;;;;;;1.40;1.10;;;4.70;99.90;;;;;;5088717;28;20488;-68
2021/11/11 17:07:43;;;;;;;0.40;0.40;;;4.60;99.90;;;;;;5088237;28;20804;-69
2021/11/11 17:10:09;;;;;;;0.40;0.30;;;4.60;99.90;;;;;;5088866;28;20370;-68
2021/11/11 17:12:35;;;;;;;1.40;0.60;;;4.60;99.90;;;;;;5086935;28;20392;-69